Impacts METAR Board
IDs:

KCNW - Waco/Texas State Tec, TX, US

Updated at: 2300 UTC 18 Oct 2019
Potential Impact None Slight Moderate High
Time 18/11Z 18/12Z 18/13Z 18/14Z 18/15Z 18/16Z 18/17Z 18/18Z 18/19Z 18/20Z 18/21Z 18/22Z 18/23Z
Temp 46 46 52 57 63 66 72 73 77 79 81 77
Dewpt 46 45 52 54 54 50 46 39 36 36 36 37
Altim 29.92 29.91 29.91 29.92 29.91 29.91 29.87 29.82 29.78 29.76 29.74 29.73
VIS 10 10 10 10 10 10 10 10 10 10 10 10
CIG -- -- -- -- -- -- -- -- -- -- -- --
CoverSKCSKCSKCSKCSKCSKCSKCSKCSKCSKCSKCSKC
FltCatVFRVFRVFRVFRVFRVFRVFRVFRVFRVFRVFRVFR
WX------------------------
WDir000140160180000140140130
WSpd 0 0 0 4 4 4 0 0 0 3 3 7
WGst -- -- -- -- -- -- -- -- -- -- -- --
Raw hourly METARs

KCNW 181155Z 00000KT 10SM SKC 08/08 A2992
KCNW 181255Z 00000KT 10SM SKC 08/07 A2991
KCNW 181355Z 00000KT 10SM SKC 11/11 A2991
KCNW 181455Z 14004KT 10SM SKC 14/12 A2992
KCNW 181555Z 16004KT 10SM SKC 17/12 A2991
KCNW 181655Z 18004KT 10SM SKC 19/10 A2991
KCNW 181755Z 00000KT 10SM SKC 22/08 A2987
KCNW 181855Z 00000KT 10SM SKC 23/04 A2982
KCNW 181955Z 00000KT 10SM SKC 25/02 A2978
KCNW 182055Z 14003KT 10SM SKC 26/02 A2976
KCNW 182155Z 14003KT 10SM SKC 27/02 A2974
KCNW 182255Z 13007KT 10SM SKC 25/03 A2973